• Join FlightAware (Why Join?)
  • Login
  • US Flag 
03:40PM EST


 

Airport Tracker/Info


-or-


 

Live Flight TrackerFlight Track Log ✈ EGF2825 ✈ 29-Apr-2014 ✈ KORD - KCID

Flight Track Log - Related Links

Times and Time Zones

All times are in EDT time to prevent confusion due to time zone crossing. See the EGF2825 flight status page for this flight to view local times or setup timezone preferences in your user account.

Time Position Orientation Groundspeed Altitude Reporting Facility
EDT Latitude Longitude Course Direction KTS MPH feet Rate Location/Type
11:41PM 41.9758 -88.2647 269° West  Level Estimated
11:42PM 41.9744 -88.3838 269° West  Level Estimated
11:43PM 41.9728 -88.5029 269° West  Level Estimated
11:44PM 41.9711 -88.6220 269° West  Level Estimated
11:45PM 41.9693 -88.7411 269° West  Level Estimated
11:46PM 41.9674 -88.8601 269° West  Level Estimated
11:47PM 41.9654 -88.9792 269° West  Level Estimated
11:48PM 41.9632 -89.0983 269° West  Level Estimated
11:49PM 41.9609 -89.2173 269° West  Level Estimated
11:50PM 41.9585 -89.3364 268° West  Level Estimated
11:51PM 41.9560 -89.4554 268° West  Level Estimated
11:52PM 41.9533 -89.5744 268° West  Level Estimated
11:53PM 41.9506 -89.6934 268° West  Level Estimated
11:54PM 41.9477 -89.8124 268° West  Level Estimated
11:55PM 41.9446 -89.9314 268° West  Level Estimated
11:56PM 41.9415 -90.0504 268° West  Level Estimated
11:57PM 41.9382 -90.1694 268° West  Level Estimated
11:58PM 41.9348 -90.2883 268° West  Level Estimated
11:59PM 41.9313 -90.4072 268° West  Level Estimated
12:00AM 41.9277 -90.5262 268° West  Level Estimated
12:01AM 41.9239 -90.6451 268° West  Level Estimated
12:02AM 41.9200 -90.7640 268° West  Level Estimated
12:03AM 41.9160 -90.8829 267° West  Level Estimated
12:04AM 41.9119 -91.0017 267° West  Level Estimated
12:05AM 41.9076 -91.1206 267° West  Level Estimated
12:06AM 41.9033 -91.2394 267° West  Level Estimated
12:07AM 41.8988 -91.3583 267° West  Level Estimated
12:08AM 41.8941 -91.4771 267° West  Level Estimated
12:09AM 41.8894 -91.5959 267° West  Level Estimated
12:10AM 41.8847 -91.7108 267° West  Level Estimated
12:11AM 41.8847 -91.7108 North  Level Estimated
12:12AM 41.8847 -91.7108 North  Level Estimated